Time;durP1;ratioP1;P1;durP2;ratioP2;P2;SDS_P1;SDS_P2;PMS_P1;PMS_P2;Temp;Humidity;BMP_temperature;BMP_pressure;BME280_temperature;BME280_humidity;BME280_pressure;Samples;Min_cycle;Max_cycle;Signal;HPM_P1;HPM_P2
2022/02/26 00:01:49;;;;;;;7.20;3.30;;;;;;;1.23;100.00;100331.78;5096190;28;20036;-75
2022/02/26 00:04:34;;;;;;;11.80;5.40;;;;;;;1.15;100.00;100323.91;5096003;28;20047;-75
2022/02/26 00:07:18;;;;;;;14.60;7.47;;;;;;;1.17;100.00;100329.09;5096651;28;20449;-75
2022/02/26 00:10:04;;;;;;;14.48;5.68;;;;;;;1.14;100.00;100316.13;5096674;28;20507;-74
2022/02/26 00:12:53;;;;;;;13.23;6.15;;;;;;;1.21;100.00;100335.19;5095991;28;20357;-74
2022/02/26 00:15:37;;;;;;;17.92;7.10;;;;;;;1.23;100.00;100323.19;5095872;28;20040;-75
2022/02/26 00:18:23;;;;;;;12.98;6.22;;;;;;;1.24;100.00;100319.78;5081712;28;20063;-75
2022/02/26 00:21:07;;;;;;;19.42;6.78;;;;;;;1.29;100.00;100326.75;5081536;28;20354;-75
2022/02/26 00:23:52;;;;;;;20.48;8.98;;;;;;;1.35;100.00;100328.59;5095871;28;20090;-74
2022/02/26 00:26:36;;;;;;;23.50;10.43;;;;;;;1.40;100.00;100333.03;5096432;28;20036;-74
2022/02/26 00:29:23;;;;;;;20.90;10.00;;;;;;;1.45;100.00;100327.94;5095442;28;20059;-75
2022/02/26 00:32:08;;;;;;;16.90;7.70;;;;;;;1.53;100.00;100341.88;5096317;28;20323;-75
2022/02/26 00:34:53;;;;;;;12.57;5.85;;;;;;;1.59;100.00;100341.13;5095582;28;20063;-74
2022/02/26 00:37:37;;;;;;;13.50;4.93;;;;;;;1.51;100.00;100325.47;5095547;28;20354;-75
2022/02/26 00:40:22;;;;;;;16.58;5.78;;;;;;;1.62;100.00;100339.47;5095516;28;20040;-74
2022/02/26 00:43:06;;;;;;;20.20;6.13;;;;;;;1.71;100.00;100341.34;5096232;28;20048;-75
2022/02/26 00:45:51;;;;;;;17.70;5.68;;;;;;;1.76;100.00;100344.91;5096143;28;20044;-75
2022/02/26 00:51:39;;;;;;;12.13;4.95;;;;;;;1.84;100.00;100348.50;5081080;28;20059;-74
2022/02/26 00:54:24;;;;;;;10.70;4.70;;;;;;;1.85;100.00;100355.44;5095323;28;20048;-74
2022/02/26 00:57:09;;;;;;;10.65;4.05;;;;;;;1.82;100.00;100351.88;5095391;28;20445;-74
2022/02/26 00:59:53;;;;;;;13.20;3.92;;;;;;;1.81;100.00;100353.59;5095408;28;20039;-75
2022/02/26 01:02:38;;;;;;;14.52;3.83;;;;;;;1.83;100.00;100349.34;5095863;28;20040;-74
2022/02/26 01:05:22;;;;;;;9.65;3.67;;;;;;;1.76;100.00;100349.22;5080897;28;20075;-74
2022/02/26 01:08:06;;;;;;;9.38;3.67;;;;;;;1.79;100.00;100355.31;5095308;28;20097;-75
2022/02/26 01:10:50;;;;;;;6.72;3.38;;;;;;;1.79;100.00;100363.06;5080842;28;20127;-75
2022/02/26 01:13:35;;;;;;;12.18;4.03;;;;;;;1.79;100.00;100365.63;5096131;28;20445;-74
2022/02/26 01:16:19;;;;;;;10.90;3.58;;;;;;;1.85;100.00;100363.19;5095416;28;20067;-74
2022/02/26 01:19:04;;;;;;;7.93;4.10;;;;;;;1.83;100.00;100370.00;5084515;28;20040;-75
2022/02/26 01:21:48;;;;;;;13.77;4.78;;;;;;;1.83;100.00;100362.25;5099201;28;20044;-75
2022/02/26 01:24:34;;;;;;;11.02;4.70;;;;;;;1.83;100.00;100359.69;5099007;28;20048;-75
2022/02/26 01:27:18;;;;;;;12.98;4.70;;;;;;;1.82;100.00;100363.13;5099878;28;20441;-74
2022/02/26 01:30:03;;;;;;;10.00;4.82;;;;;;;1.83;100.00;100364.84;5099612;28;20059;-74
2022/02/26 01:32:47;;;;;;;9.95;5.50;;;;;;;1.83;100.00;100370.00;5100009;28;20073;-75
2022/02/26 01:35:32;;;;;;;11.63;5.50;;;;;;;1.83;100.00;100366.56;5098919;28;20044;-75
2022/02/26 01:38:16;;;;;;;13.23;5.57;;;;;;;1.66;100.00;100348.16;5084634;28;20082;-75
2022/02/26 01:41:00;;;;;;;10.18;5.90;;;;;;;1.80;100.00;100369.94;5099716;28;20043;-75
2022/02/26 01:43:45;;;;;;;15.63;5.57;;;;;;;1.81;100.00;100366.53;5098717;28;20072;-74
2022/02/26 01:46:30;;;;;;;16.80;6.60;;;;;;;1.79;100.00;100367.34;5098784;28;20052;-75
2022/02/26 01:49:15;;;;;;;13.95;6.25;;;;;;;1.76;100.00;100372.47;5099577;28;20425;-75
2022/02/26 01:52:00;;;;;;;12.93;6.20;;;;;;;1.72;100.00;100366.34;5099380;28;20051;-74
2022/02/26 01:54:48;;;;;;;13.23;5.57;;;;;;;1.67;100.00;100357.66;5098590;28;20052;-74
2022/02/26 01:57:32;;;;;;;15.60;5.05;;;;;;;1.67;100.00;100374.84;5084142;28;20044;-75
2022/02/26 02:00:17;;;;;;;10.95;4.82;;;;;;;1.68;100.00;100374.00;5099202;28;20031;-75
2022/02/26 02:03:02;;;;;;;13.60;5.05;;;;;;;1.62;100.00;100374.75;5099251;28;20342;-75
2022/02/26 02:05:46;;;;;;;9.52;4.28;;;;;;;1.61;100.00;100373.00;5098651;28;20040;-75
2022/02/26 02:08:31;;;;;;;9.73;4.90;;;;;;;1.53;100.00;100372.00;5084036;28;20050;-75
2022/02/26 02:11:17;;;;;;;13.23;5.35;;;;;;;1.49;100.00;100372.75;5098965;28;20070;-75
2022/02/26 02:14:02;;;;;;;13.73;5.70;;;;;;;1.40;100.00;100376.91;5083997;28;20048;-75
2022/02/26 02:16:46;;;;;;;13.18;5.63;;;;;;;1.30;100.00;100382.72;5098262;28;20036;-75
2022/02/26 02:19:31;;;;;;;12.80;6.45;;;;;;;1.28;100.00;100384.38;5098845;28;20043;-75
2022/02/26 02:22:19;;;;;;;10.38;5.47;;;;;;;1.24;100.00;100392.03;5098068;28;20044;-75
2022/02/26 02:25:04;;;;;;;14.15;5.95;;;;;;;1.26;100.00;100387.75;5098679;28;20039;-75
2022/02/26 02:27:49;;;;;;;16.00;6.00;;;;;;;1.13;100.00;100359.09;5098659;28;20078;-75
2022/02/26 02:30:34;;;;;;;11.43;5.68;;;;;;;1.24;100.00;100380.00;5083598;28;20048;-75
2022/02/26 02:33:19;;;;;;;13.50;5.75;;;;;;;1.21;100.00;100373.91;5098577;28;20040;-75
2022/02/26 02:36:04;;;;;;;11.88;5.93;;;;;;;1.20;100.00;100383.34;5098612;28;20153;-75
2022/02/26 02:38:49;;;;;;;13.52;5.07;;;;;;;1.12;100.00;100377.16;5097935;28;20044;-75
2022/02/26 02:41:34;;;;;;;11.90;5.28;;;;;;;1.11;100.00;100388.31;5098389;28;20097;-75
2022/02/26 02:44:18;;;;;;;14.52;5.60;;;;;;;1.08;100.00;100394.28;5098257;28;20046;-75
2022/02/26 02:47:04;;;;;;;12.85;5.15;;;;;;;1.13;100.00;100399.53;5083514;28;20040;-75
2022/02/26 02:49:48;;;;;;;11.40;5.82;;;;;;;1.19;100.00;100414.28;5097675;28;20048;-75
2022/02/26 02:52:32;;;;;;;14.00;5.82;;;;;;;1.16;100.00;100417.66;5083271;28;20039;-74
2022/02/26 02:55:20;;;;;;;16.88;6.88;;;;;;;1.23;100.00;100427.28;5097561;28;20036;-75
2022/02/26 02:58:04;;;;;;;11.30;5.03;;;;;;;1.26;100.00;100421.31;5097402;28;20064;-75
2022/02/26 03:00:49;;;;;;;11.35;5.10;;;;;;;1.41;100.00;100432.00;5097427;28;20044;-75
2022/02/26 03:03:34;;;;;;;15.60;5.85;;;;;;;1.51;100.00;100440.81;5082934;28;20051;-75
2022/02/26 03:06:18;;;;;;;12.75;5.40;;;;;;;1.58;100.00;100435.78;5082987;28;20067;-75
2022/02/26 03:09:03;;;;;;;11.93;4.75;;;;;;;1.58;100.00;100435.78;5097239;28;20048;-75
2022/02/26 03:11:48;;;;;;;9.85;4.15;;;;;;;1.67;100.00;100450.63;5097387;28;20053;-75
2022/02/26 03:14:33;;;;;;;9.60;4.70;;;;;;;1.69;100.00;100443.78;5082780;28;20055;-75
2022/02/26 03:17:17;;;;;;;12.27;4.57;;;;;;;1.76;100.00;100442.19;5082769;28;20064;-75
2022/02/26 03:20:02;;;;;;;8.40;3.97;;;;;;;1.81;100.00;100443.16;5097041;28;20435;-75
2022/02/26 03:22:47;;;;;;;7.75;4.57;;;;;;;1.79;100.00;100443.13;5096856;28;20426;-75
2022/02/26 03:25:32;;;;;;;9.88;4.50;;;;;;;1.84;100.00;100464.75;5097559;28;20430;-75
2022/02/26 03:28:17;;;;;;;12.23;5.10;;;;;;;1.88;100.00;100457.94;5068123;28;20426;-75
2022/02/26 03:31:02;;;;;;;8.43;4.72;;;;;;;1.91;100.00;100458.00;5082502;28;20039;-75
2022/02/26 03:33:46;;;;;;;9.98;4.80;;;;;;;2.05;100.00;100453.13;5096673;28;20051;-75
2022/02/26 03:36:34;;;;;;;9.13;4.68;;;;;;;1.91;100.00;100460.56;5097344;28;20044;-74
2022/02/26 03:39:19;;;;;;;10.38;5.28;;;;;;;2.07;100.00;100464.34;5096635;28;20047;-74
2022/02/26 03:42:06;;;;;;;8.25;4.93;;;;;;;2.03;100.00;100465.13;5096272;28;20422;-74
2022/02/26 03:44:50;;;;;;;9.23;4.68;;;;;;;2.12;100.00;100474.78;5096577;28;20036;-74
2022/02/26 03:47:35;;;;;;;11.57;5.38;;;;;;;2.10;100.00;100485.06;5096393;28;20044;-75
2022/02/26 03:50:19;;;;;;;7.38;5.47;;;;;;;2.04;100.00;100467.72;5096406;28;20048;-74
2022/02/26 03:53:04;;;;;;;10.13;5.38;;;;;;;2.20;100.00;100484.41;5082291;28;20044;-75
2022/02/26 03:55:48;;;;;;;10.02;5.57;;;;;;;2.21;100.00;100491.34;5067594;28;20468;-74
2022/02/26 03:58:32;;;;;;;12.43;5.80;;;;;;;2.35;100.00;100483.84;5081979;28;20426;-74
2022/02/26 04:01:18;;;;;;;9.70;5.30;;;;;;;2.33;100.00;100490.69;5096923;28;20043;-74
2022/02/26 04:04:03;;;;;;;11.32;5.32;;;;;;;2.43;100.00;100496.91;5081876;28;20445;-74
2022/02/26 04:06:50;;;;;;;10.60;6.05;;;;;;;2.48;100.00;100506.50;5096807;28;20491;-74
2022/02/26 04:09:34;;;;;;;11.82;5.65;;;;;;;2.35;100.00;100501.94;5095977;28;20414;-75
2022/02/26 04:12:19;;;;;;;11.77;6.80;;;;;;;2.46;100.00;100513.34;5095962;28;20515;-74
2022/02/26 04:15:05;;;;;;;11.70;6.65;;;;;;;2.48;100.00;100515.97;5096830;28;20157;-74
2022/02/26 04:17:49;;;;;;;9.52;5.22;;;;;;;2.40;100.00;100520.13;5096121;28;20044;-74
2022/02/26 04:20:33;;;;;;;11.15;6.10;;;;;;;2.37;100.00;100527.81;5096478;28;20040;-74
2022/02/26 04:23:17;;;;;;;10.25;6.15;;;;;;;2.52;100.00;100521.22;5095720;28;20123;-74
2022/02/26 04:26:02;;;;;;;13.52;5.60;;;;;;;2.58;100.00;100523.94;5095835;28;20040;-74
2022/02/26 04:28:46;;;;;;;8.40;5.10;;;;;;;2.58;100.00;100523.06;5095741;28;20135;-74
2022/02/26 04:31:30;;;;;;;8.80;4.80;;;;;;;2.70;100.00;100540.53;5081444;28;20040;-74
2022/02/26 04:34:15;;;;;;;12.50;5.50;;;;;;;2.67;100.00;100535.31;5095775;28;20047;-74
2022/02/26 04:36:59;;;;;;;8.57;5.40;;;;;;;2.75;100.00;100538.91;5081432;28;20032;-74
2022/02/26 04:39:44;;;;;;;9.38;5.72;;;;;;;2.75;100.00;100538.91;5095558;28;20357;-74
2022/02/26 04:42:29;;;;;;;13.27;6.15;;;;;;;2.73;100.00;100543.16;5081313;28;20426;-74
2022/02/26 04:45:13;;;;;;;13.10;6.35;;;;;;;2.71;100.00;100547.44;5096256;28;20432;-74
2022/02/26 04:47:58;;;;;;;10.48;6.03;;;;;;;2.70;100.00;100546.59;5096198;28;20047;-74
2022/02/26 04:50:42;;;;;;;12.77;7.15;;;;;;;2.72;100.00;100549.19;5095389;28;20354;-74
2022/02/26 04:53:27;;;;;;;9.68;6.47;;;;;;;2.79;100.00;100561.38;5094440;28;20051;-74
2022/02/26 04:56:11;;;;;;;11.10;5.97;;;;;;;2.77;100.00;100569.13;5096094;28;20040;-74
2022/02/26 04:58:56;;;;;;;10.95;5.65;;;;;;;2.77;100.00;100570.84;5096018;28;20063;-74
2022/02/26 05:01:40;;;;;;;12.25;6.30;;;;;;;2.74;100.00;100568.22;5080958;28;20074;-74
2022/02/26 05:04:25;;;;;;;11.60;7.40;;;;;;;2.82;100.00;100589.91;5095125;28;20040;-74
2022/02/26 05:07:12;;;;;;;15.63;7.95;;;;;;;2.83;100.00;100589.09;5081119;28;20036;-74
2022/02/26 05:09:57;;;;;;;17.30;8.88;;;;;;;2.83;100.00;100580.41;5095868;28;20062;-74
2022/02/26 05:12:42;;;;;;;22.60;9.32;;;;;;;2.89;100.00;100596.94;5095133;28;20056;-75
2022/02/26 05:15:26;;;;;;;27.48;10.48;;;;;;;2.85;100.00;100595.13;5095792;28;20048;-74
2022/02/26 05:18:11;;;;;;;28.27;11.48;;;;;;;2.87;100.00;100608.13;5095177;28;20041;-74
2022/02/26 05:20:55;;;;;;;27.40;11.98;;;;;;;2.90;100.00;100615.94;5095156;28;20052;-74
2022/02/26 05:23:43;;;;;;;20.60;10.23;;;;;;;2.79;100.00;100587.25;5095039;28;20128;-74
2022/02/26 05:26:27;;;;;;;20.58;10.15;;;;;;;2.93;100.00;100618.59;5095033;28;20327;-74
2022/02/26 05:29:12;;;;;;;25.23;9.25;;;;;;;2.93;100.00;100626.34;5094811;28;20420;-74
2022/02/26 05:31:57;;;;;;;18.67;8.82;;;;;;;2.96;100.00;100623.81;5095816;28;20036;-74
2022/02/26 05:34:41;;;;;;;17.02;8.48;;;;;;;2.96;100.00;100636.75;5094942;28;20045;-75
2022/02/26 05:37:25;;;;;;;16.20;7.47;;;;;;;2.99;100.00;100636.78;5094911;28;20036;-74
2022/02/26 05:40:10;;;;;;;14.52;8.07;;;;;;;2.96;100.00;100647.13;5080661;28;20051;-74
2022/02/26 05:42:55;;;;;;;17.25;7.75;;;;;;;2.94;100.00;100636.72;5094749;28;20069;-74
2022/02/26 05:45:40;;;;;;;13.50;7.60;;;;;;;3.04;100.00;100654.16;5095540;28;20041;-74
2022/02/26 05:48:24;;;;;;;12.60;7.43;;;;;;;2.84;100.00;100649.47;5094742;28;20327;-74
2022/02/26 05:51:09;;;;;;;15.98;8.43;;;;;;;2.97;100.00;100656.63;5095544;28;20043;-74
2022/02/26 05:53:53;;;;;;;22.85;10.27;;;;;;;2.91;100.00;100669.44;5080723;28;20040;-74
2022/02/26 05:56:38;;;;;;;17.23;10.40;;;;;;;2.91;100.00;100669.44;5093581;28;20044;-74
2022/02/26 05:59:23;;;;;;;21.63;12.82;;;;;;;2.99;100.00;100679.09;5079129;28;20040;-74
2022/02/26 06:02:07;;;;;;;16.67;9.73;;;;;;;2.94;100.00;100675.53;5095913;28;20044;-74
2022/02/26 06:04:52;;;;;;;11.98;7.00;;;;;;;3.03;100.00;100683.50;5098192;28;20044;-74
2022/02/26 06:07:36;;;;;;;12.38;6.72;;;;;;;3.14;100.00;100686.28;5098835;28;20048;-74
2022/02/26 06:10:21;;;;;;;9.88;7.05;;;;;;;3.18;100.00;100693.25;5099156;28;20051;-74
2022/02/26 06:13:05;;;;;;;11.02;7.10;;;;;;;3.14;100.00;100688.00;5084695;28;20044;-74
2022/02/26 06:15:50;;;;;;;13.80;6.93;;;;;;;3.17;100.00;100698.41;5098540;28;20101;-74
2022/02/26 06:18:35;;;;;;;9.82;5.95;;;;;;;3.09;100.00;100690.50;5098683;28;20040;-74
2022/02/26 06:21:19;;;;;;;9.60;5.38;;;;;;;3.13;100.00;100707.84;5099027;28;20055;-74
2022/02/26 06:24:04;;;;;;;11.70;6.45;;;;;;;2.96;100.00;100712.69;5098204;28;20047;-74
2022/02/26 06:26:48;;;;;;;12.38;6.80;;;;;;;2.93;100.00;100725.56;5098378;28;20041;-74
2022/02/26 06:29:32;;;;;;;25.98;21.20;;;;;;;3.04;100.00;100723.19;5097994;28;20052;-74
2022/02/26 06:32:17;;;;;;;16.42;11.40;;;;;;;3.01;100.00;100730.88;5098990;28;20153;-74
2022/02/26 06:35:01;;;;;;;22.13;12.73;;;;;;;3.06;100.00;100737.03;5083768;28;20127;-74
2022/02/26 06:37:45;;;;;;;58.60;36.78;;;;;;;2.94;100.00;100737.66;5098225;28;20109;-74
2022/02/26 06:40:30;;;;;;;18.75;12.68;;;;;;;3.11;100.00;100740.56;5099181;28;20050;-74
2022/02/26 06:43:15;;;;;;;12.35;7.60;;;;;;;3.09;100.00;100741.38;5097827;28;20044;-74
2022/02/26 06:45:59;;;;;;;14.15;10.30;;;;;;;3.21;100.00;100752.84;5097979;28;20036;-74
2022/02/26 06:48:44;;;;;;;16.75;11.00;;;;;;;3.33;100.00;100765.19;5099012;28;20101;-74
2022/02/26 06:51:29;;;;;;;16.52;7.78;;;;;;;3.25;100.00;100758.97;5098295;28;20064;-74
2022/02/26 06:54:13;;;;;;;19.50;7.50;;;;;;;3.36;100.00;100767.84;5098589;28;20055;-74
2022/02/26 06:56:59;;;;;;;11.50;6.57;;;;;;;3.36;100.00;100767.84;5098905;28;20149;-74
2022/02/26 06:59:43;;;;;;;10.95;6.43;;;;;;;3.26;100.00;100774.56;5097508;28;20449;-74
2022/02/26 07:02:28;;;;;;;11.35;6.63;;;;;;;3.34;100.00;100777.28;5098160;28;20426;-74
2022/02/26 07:05:12;;;;;;;15.23;7.20;;;;;;;3.26;100.00;100784.03;5097639;28;20050;-74
2022/02/26 07:07:57;;;;;;;13.63;8.68;;;;;;;3.41;100.00;100773.09;5096967;28;20044;-75
2022/02/26 07:10:41;;;;;;;18.55;11.43;;;;;;;3.41;100.00;100794.72;5081958;28;20048;-76
2022/02/26 07:13:25;;;;;;;13.48;8.52;;;;;;;3.46;100.00;100802.56;5096101;28;20044;-76
2022/02/26 07:16:10;;;;;;;15.18;9.70;;;;;;;3.37;100.00;100803.25;5095072;28;20358;-75
2022/02/26 07:18:54;;;;;;;14.13;7.43;;;;;;;3.55;100.00;100812.25;5095243;28;20044;-75
2022/02/26 07:21:39;;;;;;;25.08;15.00;;;;;;;3.58;100.00;100815.75;5095971;28;20089;-75
2022/02/26 07:24:24;;;;;;;25.17;16.20;;;;;;;3.64;100.00;100820.16;5080872;28;20043;-74
2022/02/26 07:27:10;;;;;;;19.02;12.73;;;;;;;3.68;100.00;100830.63;5095454;28;20052;-74
2022/02/26 07:29:55;;;;;;;15.80;10.48;;;;;;;3.55;100.00;100823.47;5095085;28;20517;-74
2022/02/26 07:32:39;;;;;;;15.07;8.75;;;;;;;3.54;100.00;100833.78;5094941;28;20051;-74
2022/02/26 07:35:23;;;;;;;12.70;8.48;;;;;;;3.45;100.00;100835.38;5095599;28;20058;-75
2022/02/26 07:38:07;;;;;;;18.23;8.88;;;;;;;3.58;100.00;100838.19;5080570;28;20036;-74
2022/02/26 07:40:51;;;;;;;16.83;8.98;;;;;;;3.60;100.00;100839.94;5094803;28;20051;-75
2022/02/26 07:43:37;;;;;;;11.63;8.38;;;;;;;3.49;100.00;100841.47;5096296;28;20377;-75
2022/02/26 07:46:22;;;;;;;13.85;7.95;;;;;;;3.65;100.00;100838.34;5097281;28;20039;-75
2022/02/26 07:49:06;;;;;;;12.82;8.60;;;;;;;4.04;100.00;100849.44;5082892;28;20381;-74
2022/02/26 07:51:50;;;;;;;17.25;8.93;;;;;;;3.84;100.00;100849.94;5097208;28;20074;-74
2022/02/26 07:54:35;;;;;;;27.58;14.70;;;;;;;4.26;100.00;100859.34;5082401;28;20426;-75
2022/02/26 07:57:19;;;;;;;30.85;20.10;;;;;;;4.40;100.00;100857.84;5082663;28;20426;-74
2022/02/26 08:00:04;;;;;;;72.60;32.65;;;;;;;4.66;100.00;100865.19;5096373;28;20043;-75
2022/02/26 08:02:52;;;;;;;126.60;70.25;;;;;;;4.67;100.00;100874.69;5097499;28;20048;-74
2022/02/26 08:05:36;;;;;;;129.77;81.57;;;;;;;4.68;100.00;100869.56;5067607;28;20044;-75
2022/02/26 08:08:21;;;;;;;70.03;46.22;;;;;;;4.87;100.00;100870.69;5096135;28;20036;-75
2022/02/26 08:11:05;;;;;;;40.47;21.38;;;;;;;5.06;100.00;100874.41;5096738;28;20036;-75
2022/02/26 08:13:50;;;;;;;83.85;36.20;;;;;;;4.88;100.00;100880.22;5097050;28;20044;-74
2022/02/26 08:16:35;;;;;;;27.90;14.48;;;;;;;4.94;100.00;100887.25;5096828;28;20392;-75
2022/02/26 08:19:19;;;;;;;81.70;37.00;;;;;;;5.15;100.00;100887.53;5096047;28;20052;-74
2022/02/26 08:22:04;;;;;;;175.07;87.10;;;;;;;5.11;100.00;100893.56;5095855;28;20036;-74
2022/02/26 08:24:49;;;;;;;255.60;149.18;;;;;;;4.89;100.00;100891.47;5095589;28;20047;-75
2022/02/26 08:27:34;;;;;;;94.80;54.33;;;;;;;4.84;100.00;100895.72;5096899;28;20040;-74
2022/02/26 08:30:19;;;;;;;157.95;74.55;;;;;;;4.83;100.00;100888.78;5095659;28;20044;-75
2022/02/26 08:33:04;;;;;;;32.40;16.65;;;;;;;5.03;100.00;100902.06;5096553;28;20094;-74
2022/02/26 08:35:48;;;;;;;39.58;21.75;;;;;;;5.12;100.00;100900.47;5096650;28;20089;-75
2022/02/26 08:38:33;;;;;;;17.30;10.68;;;;;;;5.12;100.00;100895.28;5096128;28;20040;-74
2022/02/26 08:41:18;;;;;;;15.43;9.02;;;;;;;5.48;100.00;100906.16;5096014;28;20113;-74
2022/02/26 08:44:02;;;;;;;57.58;32.70;;;;;;;5.43;100.00;100910.41;5096213;28;20047;-74
2022/02/26 08:46:47;;;;;;;12.82;8.25;;;;;;;5.44;100.00;100918.25;5095566;28;20044;-75
2022/02/26 08:49:32;;;;;;;14.85;7.93;;;;;;;5.66;100.00;100928.94;5081431;28;20044;-74
2022/02/26 08:52:16;;;;;;;11.60;7.35;;;;;;;5.63;100.00;100915.03;5081866;28;20040;-75
2022/02/26 08:55:01;;;;;;;11.52;6.95;;;;;;;5.62;100.00;100923.69;5095507;28;20504;-75
2022/02/26 08:57:46;;;;;;;12.48;7.15;;;;;;;5.64;100.00;100931.50;5095771;28;20036;-75
2022/02/26 09:00:31;;;;;;;11.55;6.72;;;;;;;5.50;100.00;100914.88;5096220;28;20070;-75
2022/02/26 09:03:15;;;;;;;12.50;6.85;;;;;;;5.60;100.00;100930.59;5081138;28;20101;-74
2022/02/26 09:06:00;;;;;;;12.63;6.85;;;;;;;5.66;100.00;100913.34;5081543;28;20047;-75
2022/02/26 09:08:45;;;;;;;16.58;9.00;;;;;;;5.67;100.00;100939.34;5096212;28;20350;-79
2022/02/26 09:11:29;;;;;;;12.98;8.07;;;;;;;5.84;100.00;100944.75;5096574;28;20040;-78
2022/02/26 09:14:14;;;;;;;13.00;6.28;;;;;;;6.02;100.00;100950.22;5095232;28;20481;-78
2022/02/26 09:16:58;;;;;;;10.45;6.22;;;;;;;5.77;100.00;100955.94;5081215;28;20039;-78
2022/02/26 09:19:43;;;;;;;12.65;6.78;;;;;;;5.91;100.00;100954.34;5095848;28;20044;-79
2022/02/26 09:22:27;;;;;;;17.27;9.52;;;;;;;5.62;100.00;100954.88;5081037;28;20036;-78
2022/02/26 09:25:12;;;;;;;13.38;7.38;;;;;;;5.97;100.00;100957.06;5095506;28;20048;-78
2022/02/26 09:27:57;;;;;;;15.98;8.25;;;;;;;6.03;100.00;100964.94;5095927;28;20058;-78
2022/02/26 09:30:41;;;;;;;12.25;6.38;;;;;;;5.97;100.00;100967.47;5081331;28;20051;-79
2022/02/26 09:33:26;;;;;;;13.60;8.55;;;;;;;6.11;100.00;100978.06;5080904;28;20043;-80
2022/02/26 09:36:10;;;;;;;12.23;7.40;;;;;;;5.82;100.00;100980.28;5096192;28;20479;-79
2022/02/26 09:38:55;;;;;;;27.58;17.02;;;;;;;6.03;100.00;100990.97;5082399;28;20414;-79
2022/02/26 09:41:42;;;;;;;40.03;33.22;;;;;;;6.15;100.00;100991.97;5099068;28;20055;-79
2022/02/26 09:44:26;;;;;;;61.38;46.17;;;;;;;6.32;100.00;100998.25;5099848;28;20040;-79
2022/02/26 09:47:11;;;;;;;17.73;11.55;;;;;;;6.40;100.00;101001.81;5084963;28;20123;-79
2022/02/26 09:49:55;;;;;;;16.95;10.75;;;;;;;6.33;100.00;100992.16;5084873;28;20101;-80
2022/02/26 09:52:42;;;;;;;11.77;7.80;;;;;;;5.99;100.00;100999.59;5085116;28;20069;-79
2022/02/26 09:55:27;;;;;;;12.05;8.60;;;;;;;6.23;100.00;101005.94;5096886;28;20389;-79
2022/02/26 09:58:15;;;;;;;10.45;7.18;;;;;;;6.21;100.00;101008.53;5103148;28;20050;-79
2022/02/26 10:00:59;;;;;;;14.45;9.80;;;;;;;6.08;100.00;101023.13;5117974;28;20042;-79
2022/02/26 10:03:44;;;;;;;17.85;9.73;;;;;;;5.86;100.00;101019.31;5117954;28;20044;-79
2022/02/26 10:06:28;;;;;;;12.85;8.25;;;;;;;5.91;100.00;101021.09;5104368;28;20039;-79
2022/02/26 10:09:15;;;;;;;15.15;9.15;;;;;;;5.82;100.00;101027.94;5120219;28;20040;-79
2022/02/26 10:11:59;;;;;;;15.43;9.45;;;;;;;5.74;100.00;101033.88;5119184;28;20089;-79
2022/02/26 10:14:43;;;;;;;17.17;9.43;;;;;;;5.98;100.00;101031.66;5118897;28;20054;-79
2022/02/26 10:17:34;;;;;;;17.58;10.43;;;;;;;6.00;100.00;101026.47;5119380;28;20043;-78
2022/02/26 10:20:19;;;;;;;14.43;9.30;;;;;;;6.11;100.00;101031.78;5104953;28;20100;-79
2022/02/26 10:23:04;;;;;;;36.88;18.80;;;;;;;6.01;100.00;101026.50;5119535;28;20043;-78
2022/02/26 10:25:49;;;;;;;26.02;14.45;;;;;;;6.36;100.00;101022.56;5119268;28;20460;-79
2022/02/26 10:28:39;;;;;;;85.25;25.55;;;;;;;6.34;100.00;101027.75;5118706;28;20048;-78
2022/02/26 10:31:23;;;;;;;54.97;28.30;;;;;;;6.52;100.00;101025.34;5118122;28;20073;-78
2022/02/26 10:34:33;;;;;;;61.50;27.30;;;;;;;6.57;100.00;101034.97;5118687;28;20043;-78
2022/02/26 10:37:19;;;;;;;94.47;28.13;;;;;;;6.13;100.00;101024.91;5103937;28;20052;-79
2022/02/26 10:40:04;;;;;;;100.25;30.30;;;;;;;6.05;100.00;101030.00;5119592;28;20044;-78
2022/02/26 10:42:49;;;;;;;43.30;16.95;;;;;;;6.16;100.00;101046.63;5118885;28;20039;-80
2022/02/26 10:45:34;;;;;;;23.08;12.77;;;;;;;5.81;100.00;101052.19;5117590;28;20120;-80
2022/02/26 10:48:18;;;;;;;10.60;6.38;;;;;;;5.84;100.00;101051.34;5117177;28;20040;-79
2022/02/26 10:51:03;;;;;;;8.48;5.55;;;;;;;5.88;100.00;101060.94;5116245;28;20047;-80
2022/02/26 10:53:48;;;;;;;9.70;5.63;;;;;;;6.06;100.00;101056.03;5116392;28;20073;-78
2022/02/26 10:56:40;;;;;;;11.45;7.18;;;;;;;6.25;100.00;101062.34;5102436;28;20058;-82
2022/02/26 10:59:34;;;;;;;12.35;8.38;;;;;;;6.33;100.00;101059.81;5116205;28;20123;-79
2022/02/26 11:02:23;;;;;;;11.73;7.13;;;;;;;6.32;100.00;101066.75;5118360;28;20093;-79
2022/02/26 11:05:08;;;;;;;13.95;7.40;;;;;;;5.97;100.00;101065.44;5116984;28;20075;-79
2022/02/26 11:07:53;;;;;;;14.48;7.05;;;;;;;5.95;100.00;101069.75;5117265;28;20044;-79
2022/02/26 11:10:38;;;;;;;12.38;7.90;;;;;;;5.92;100.00;101054.94;5118468;28;20071;-78
2022/02/26 11:13:23;;;;;;;19.00;10.80;;;;;;;6.03;100.00;101062.91;5103321;28;20047;-78
2022/02/26 11:16:09;;;;;;;13.48;8.27;;;;;;;6.00;100.00;101055.94;5118152;28;20110;-78
2022/02/26 11:18:58;;;;;;;22.55;12.80;;;;;;;5.90;100.00;101059.25;5118767;28;20043;-78
2022/02/26 11:21:42;;;;;;;25.45;13.70;;;;;;;5.83;100.00;101057.41;5118190;28;20381;-79
2022/02/26 11:24:28;;;;;;;42.03;17.13;;;;;;;5.66;100.00;101064.09;5117421;28;20096;-79
2022/02/26 11:27:13;;;;;;;45.05;19.35;;;;;;;5.80;100.00;101066.03;5117927;28;20093;-79
2022/02/26 11:30:00;;;;;;;18.80;9.60;;;;;;;5.72;100.00;101056.38;5118013;28;20063;-79
2022/02/26 11:32:47;;;;;;;23.40;11.05;;;;;;;5.65;100.00;101064.94;5118059;28;20090;-79
2022/02/26 11:35:32;;;;;;;102.68;35.17;;;;;;;5.63;100.00;101063.19;5117985;28;20047;-80
2022/02/26 11:38:18;;;;;;;308.00;116.95;;;;;;;5.76;100.00;101063.38;5118434;28;20054;-79
2022/02/26 11:41:19;;;;;;;104.32;41.00;;;;;;;5.64;100.00;101077.06;5117584;28;20047;-82
2022/02/26 11:44:04;;;;;;;16.90;8.70;;;;;;;5.61;100.00;101071.81;5118274;28;20398;-78
2022/02/26 11:46:48;;;;;;;19.92;11.52;;;;;;;5.40;100.00;101072.38;5102712;28;20048;-78
2022/02/26 11:49:34;;;;;;;74.30;31.45;;;;;;;5.41;100.00;101075.84;5117932;28;20067;-77
2022/02/26 11:52:35;;;;;;;29.08;12.88;;;;;;;5.29;100.00;101061.78;5117290;28;20081;-79
2022/02/26 11:55:26;;;;;;;18.05;7.60;;;;;;;5.45;100.00;101075.91;5117418;28;20048;-79
2022/02/26 11:58:10;;;;;;;33.05;14.48;;;;;;;5.49;100.00;101072.53;5117530;28;20036;-79
2022/02/26 12:00:58;;;;;;;19.23;10.70;;;;;;;5.39;100.00;101065.41;5116189;28;20127;-79
2022/02/26 12:03:49;;;;;;;13.18;7.40;;;;;;;5.46;100.00;101081.97;5117160;28;20044;-79
2022/02/26 12:06:35;;;;;;;15.98;8.10;;;;;;;5.51;100.00;101075.13;5102433;28;20036;-79
2022/02/26 12:09:20;;;;;;;136.55;58.40;;;;;;;5.65;100.00;101067.53;5117096;28;20036;-79
2022/02/26 12:12:31;;;;;;;40.67;20.05;;;;;;;5.87;100.00;101069.59;5117292;28;20420;-79
2022/02/26 12:15:19;;;;;;;19.10;9.30;;;;;;;5.93;100.00;101076.66;5116388;28;20406;-79
2022/02/26 12:18:05;;;;;;;16.48;7.68;;;;;;;5.89;100.00;101082.63;5117091;28;20051;-78
2022/02/26 12:20:59;;;;;;;20.20;10.25;;;;;;;5.81;100.00;101083.38;5116353;28;20454;-79
2022/02/26 12:24:02;;;;;;;21.13;11.38;;;;;;;5.85;100.00;101081.72;5117189;28;20319;-79
2022/02/26 12:27:01;;;;;;;;;;;;;;;5.72;100.00;101093.66;5117952;28;20040;-78
2022/02/26 12:29:45;;;;;;;30.02;16.10;;;;;;;5.66;100.00;101095.31;5116869;28;19924;-79
2022/02/26 12:32:30;;;;;;;26.17;12.55;;;;;;;5.61;100.00;101083.09;5117413;28;20097;-79
2022/02/26 12:35:16;;;;;;;21.13;10.48;;;;;;;5.53;100.00;101105.50;5116868;28;20040;-79
2022/02/26 12:38:01;;;;;;;13.52;8.35;;;;;;;5.46;100.00;101093.25;5116631;28;20172;-79
2022/02/26 12:40:45;;;;;;;16.20;9.98;;;;;;;5.37;100.00;101091.38;5115207;28;20050;-78
2022/02/26 12:43:30;;;;;;;20.00;11.18;;;;;;;5.52;100.00;101090.72;5115262;28;20447;-78